Time;durP1;ratioP1;P1;durP2;ratioP2;P2;SDS_P1;SDS_P2;PMS_P1;PMS_P2;Temp;Humidity;BMP_temperature;BMP_pressure;BME280_temperature;BME280_humidity;BME280_pressure;Samples;Min_cycle;Max_cycle;Signal;HPM_P1;HPM_P2
2021/05/01 00:02:16;;;;;;;;;;;10.10;69.60;;;;;;4303721;33;44682;-75
2021/05/01 00:04:46;;;;;;;;;;;10.10;69.70;;;;;;4303916;33;40607;-75
2021/05/01 00:07:15;;;;;;;;;;;10.10;69.70;;;;;;4304775;33;20422;-75
2021/05/01 00:09:47;;;;;;;;;;;10.00;69.70;;;;;;4279784;33;20401;-75
2021/05/01 00:12:19;;;;;;;;;;;10.00;69.80;;;;;;4291331;33;27783;-75
2021/05/01 00:14:52;;;;;;;;;;;10.00;70.60;;;;;;4304046;33;43549;-75
2021/05/01 00:17:27;;;;;;;;;;;10.00;69.80;;;;;;4291679;33;20048;-75
2021/05/01 00:19:59;;;;;;;;;;;10.00;69.90;;;;;;4292166;33;20050;-75
2021/05/01 00:22:31;;;;;;;;;;;9.90;69.90;;;;;;4305122;33;20375;-75
2021/05/01 00:25:07;;;;;;;;;;;9.90;69.90;;;;;;4290271;33;44608;-75
2021/05/01 00:27:39;;;;;;;;;;;9.90;70.00;;;;;;4290673;33;43287;-75
2021/05/01 00:30:12;;;;;;;;;;;9.90;70.00;;;;;;4292012;33;20090;-75
2021/05/01 00:32:44;;;;;;;;;;;9.90;70.00;;;;;;4290418;33;41699;-75
2021/05/01 00:35:14;;;;;;;;;;;9.90;69.90;;;;;;4304101;33;32220;-74
2021/05/01 00:37:44;;;;;;;;;;;9.90;70.00;;;;;;4303117;33;34887;-74
2021/05/01 00:40:19;;;;;;;;;;;9.90;70.00;;;;;;4289873;33;45402;-75
2021/05/01 00:42:51;;;;;;;;;;;9.90;69.90;;;;;;4278667;33;43869;-74
2021/05/01 00:45:20;;;;;;;;;;;9.90;70.00;;;;;;4290706;33;37186;-75
2021/05/01 00:47:50;;;;;;;;;;;9.80;69.90;;;;;;4304004;33;20438;-75
2021/05/01 00:50:25;;;;;;;;;;;9.90;70.00;;;;;;4304641;33;20050;-75
2021/05/01 00:52:57;;;;;;;;;;;9.80;70.00;;;;;;4304745;33;20062;-75
2021/05/01 00:55:39;;;;;;;;;;;9.80;70.10;;;;;;4303663;33;44305;-75
2021/05/01 00:58:09;;;;;;;;;;;9.80;70.20;;;;;;4303708;33;33667;-75
2021/05/01 01:03:13;;;;;;;;;;;9.70;70.30;;;;;;4290314;33;20014;-75
2021/05/01 01:05:45;;;;;;;;;;;9.80;70.40;;;;;;4291531;33;19998;-75
2021/05/01 01:08:17;;;;;;;;;;;9.80;70.30;;;;;;4291612;33;20087;-75
2021/05/01 01:10:53;;;;;;;;;;;9.70;70.20;;;;;;4291404;33;20004;-75
2021/05/01 01:13:23;;;;;;;;;;;9.70;70.30;;;;;;4290628;33;28383;-75
2021/05/01 01:15:55;;;;;;;;;;;9.70;70.30;;;;;;4303770;33;20066;-75
2021/05/01 01:18:28;;;;;;;;;;;9.70;70.50;;;;;;4290641;33;38721;-75
2021/05/01 01:21:01;;;;;;;;;;;9.60;70.40;;;;;;4290811;33;20006;-75
2021/05/01 01:23:36;;;;;;;;;;;9.70;70.50;;;;;;4304326;33;20062;-75
2021/05/01 01:26:03;;;;;;;;;;;9.60;70.40;;;;;;4290273;33;26069;-75
2021/05/01 01:28:29;;;;;;;;;;;9.60;70.40;;;;;;4302371;33;43198;-75
2021/05/01 01:31:04;;;;;;;;;;;9.60;70.40;;;;;;4290619;33;20133;-75
2021/05/01 01:33:36;;;;;;;;;;;9.60;70.40;;;;;;4290704;33;20020;-75
2021/05/01 01:36:09;;;;;;;;;;;9.60;70.40;;;;;;4291118;33;20002;-74
2021/05/01 01:38:38;;;;;;;;;;;9.60;70.40;;;;;;4290524;33;20050;-75
2021/05/01 01:41:11;;;;;;;;;;;9.60;70.40;;;;;;4289534;33;44094;-75
2021/05/01 01:43:44;;;;;;;;;;;9.50;70.30;;;;;;4290618;33;20129;-75
2021/05/01 01:46:18;;;;;;;;;;;9.50;70.30;;;;;;4277826;33;43989;-75
2021/05/01 01:51:50;;;;;;;;;;;9.50;70.30;;;;;;4272013;33;20058;-74
2021/05/01 01:54:25;;;;;;;;;;;9.50;70.30;;;;;;4274531;33;20010;-74
2021/05/01 01:56:52;;;;;;;;;;;9.40;70.30;;;;;;4274735;33;20078;-74
2021/05/01 01:59:19;;;;;;;;;;;9.40;70.40;;;;;;4274797;33;20007;-74
2021/05/01 02:01:48;;;;;;;;;;;9.40;70.40;;;;;;4274767;33;20007;-74
2021/05/01 02:04:18;;;;;;;;;;;9.30;70.50;;;;;;4273915;33;20108;-74
2021/05/01 02:06:45;;;;;;;;;;;9.30;70.60;;;;;;4273477;33;33918;-74
2021/05/01 02:09:15;;;;;;;;;;;9.30;70.70;;;;;;4261050;33;44001;-74
2021/05/01 02:11:42;;;;;;;;;;;9.20;70.60;;;;;;4274488;33;20073;-74
2021/05/01 02:14:11;;;;;;;;;;;9.20;70.60;;;;;;4261173;33;32421;-74
2021/05/01 02:16:41;;;;;;;;;;;9.30;70.60;;;;;;4274556;33;20070;-74
2021/05/01 02:19:07;;;;;;;;;;;9.20;71.20;;;;;;4272896;33;43617;-74
2021/05/01 02:21:34;;;;;;;;;;;9.20;70.50;;;;;;4261678;33;20021;-74
2021/05/01 02:24:09;;;;;;;;;;;9.20;70.60;;;;;;4272319;33;43476;-74
2021/05/01 02:26:38;;;;;;;;;;;9.20;70.60;;;;;;4260777;33;39467;-74
2021/05/01 02:29:07;;;;;;;;;;;9.20;70.60;;;;;;4271624;33;46763;-74
2021/05/01 02:31:34;;;;;;;;;;;9.10;70.70;;;;;;4273430;33;44050;-74
2021/05/01 02:34:00;;;;;;;;;;;9.10;70.90;;;;;;4260208;33;46169;-74
2021/05/01 02:36:37;;;;;;;;;;;9.20;70.90;;;;;;4260388;33;43466;-74
2021/05/01 02:39:04;;;;;;;;;;;9.10;70.90;;;;;;4260635;33;31486;-74
2021/05/01 02:41:31;;;;;;;;;;;9.10;71.00;;;;;;4271522;33;45130;-74
2021/05/01 02:44:00;;;;;;;;;;;9.10;71.10;;;;;;4273380;33;43891;-74
2021/05/01 02:46:30;;;;;;;;;;;9.10;71.10;;;;;;4272275;33;37418;-74
2021/05/01 02:48:57;;;;;;;;;;;9.00;71.10;;;;;;4272589;33;44936;-74
2021/05/01 02:51:26;;;;;;;;;;;9.10;71.20;;;;;;4272870;33;44825;-74
2021/05/01 02:53:58;;;;;;;;;;;9.00;71.10;;;;;;4260127;33;42466;-74
2021/05/01 02:56:25;;;;;;;;;;;9.00;71.00;;;;;;4273979;33;20025;-74
2021/05/01 02:58:55;;;;;;;;;;;9.00;71.10;;;;;;4272828;33;20042;-74
2021/05/01 03:01:27;;;;;;;;;;;9.00;71.10;;;;;;4260382;33;20034;-74
2021/05/01 03:03:54;;;;;;;;;;;9.00;71.20;;;;;;4273122;33;34106;-74
2021/05/01 03:06:26;;;;;;;;;;;8.90;71.20;;;;;;4261252;33;20000;-74
2021/05/01 03:08:55;;;;;;;;;;;8.90;71.30;;;;;;4274202;33;20089;-74
2021/05/01 03:11:25;;;;;;;;;;;8.90;71.40;;;;;;4259965;33;43494;-74
2021/05/01 03:13:51;;;;;;;;;;;8.80;71.40;;;;;;4259785;33;43732;-74
2021/05/01 03:16:18;;;;;;;;;;;8.80;71.40;;;;;;4272682;33;43465;-74
2021/05/01 03:18:45;;;;;;;;;;;8.80;71.20;;;;;;4272813;33;38596;-74
2021/05/01 03:21:17;;;;;;;;;;;8.80;71.10;;;;;;4261038;33;19999;-74
2021/05/01 03:23:44;;;;;;;;;;;8.80;71.00;;;;;;4274307;33;20140;-74
2021/05/01 03:26:16;;;;;;;;;;;8.80;70.90;;;;;;4274020;33;20050;-74
2021/05/01 03:28:45;;;;;;;;;;;8.80;70.90;;;;;;4273850;33;20102;-75
2021/05/01 03:31:14;;;;;;;;;;;8.80;70.90;;;;;;4272456;33;43673;-75
2021/05/01 03:33:41;;;;;;;;;;;8.70;70.90;;;;;;4260385;33;20011;-74
2021/05/01 03:36:09;;;;;;;;;;;8.70;70.90;;;;;;4273060;33;20454;-75
2021/05/01 03:38:35;;;;;;;;;;;8.70;70.90;;;;;;4272711;33;41595;-74
2021/05/01 03:41:10;;;;;;;;;;;8.70;70.90;;;;;;4260250;33;27492;-75
2021/05/01 03:43:39;;;;;;;;;;;8.70;70.80;;;;;;4259823;33;43658;-75
2021/05/01 03:46:09;;;;;;;;;;;8.70;70.80;;;;;;4259359;33;44976;-74
2021/05/01 03:48:41;;;;;;;;;;;8.60;70.80;;;;;;4272530;33;30654;-74
2021/05/01 03:51:14;;;;;;;;;;;8.60;70.90;;;;;;4272535;33;37085;-74
2021/05/01 03:53:43;;;;;;;;;;;8.60;71.00;;;;;;4271786;33;38687;-74
2021/05/01 03:56:10;;;;;;;;;;;8.60;71.10;;;;;;4272539;33;44703;-74
2021/05/01 03:58:36;;;;;;;;;;;8.50;71.10;;;;;;4272625;33;45166;-74
2021/05/01 04:01:06;;;;;;;;;;;8.50;71.10;;;;;;4272022;33;23084;-75
2021/05/01 04:03:32;;;;;;;;;;;8.50;71.10;;;;;;4272133;33;43514;-75
2021/05/01 04:06:04;;;;;;;;;;;8.50;71.10;;;;;;4272636;33;39518;-75
2021/05/01 04:08:33;;;;;;;;;;;8.50;71.20;;;;;;4273431;33;20019;-75
2021/05/01 04:11:05;;;;;;;;;;;8.50;71.30;;;;;;4273909;33;20019;-75
2021/05/01 04:13:49;;;;;;;;;;;8.50;71.30;;;;;;4275129;33;20011;-74
2021/05/01 04:16:24;;;;;;;;;;;8.50;71.40;;;;;;4275311;33;20024;-75
2021/05/01 04:18:56;;;;;;;;;;;8.50;71.40;;;;;;4276431;33;20010;-75
2021/05/01 04:21:26;;;;;;;;;;;8.50;71.50;;;;;;4276357;33;20070;-75
2021/05/01 04:23:56;;;;;;;;;;;8.50;71.50;;;;;;4263693;33;20093;-75
2021/05/01 04:26:28;;;;;;;;;;;8.50;71.60;;;;;;4273892;33;37513;-75
2021/05/01 04:28:59;;;;;;;;;;;8.40;71.60;;;;;;4276222;33;20014;-75
2021/05/01 04:31:29;;;;;;;;;;;8.40;71.70;;;;;;4263499;33;20007;-74
2021/05/01 04:34:01;;;;;;;;;;;8.40;71.70;;;;;;4275662;33;20019;-74
2021/05/01 04:36:30;;;;;;;;;;;8.40;71.70;;;;;;4262143;33;37156;-75
2021/05/01 04:39:03;;;;;;;;;;;8.40;71.80;;;;;;4276311;33;20075;-75
2021/05/01 04:41:36;;;;;;;;;;;8.40;71.90;;;;;;4274912;33;31645;-75
2021/05/01 04:44:09;;;;;;;;;;;8.40;71.90;;;;;;4274971;33;43005;-74
2021/05/01 04:46:38;;;;;;;;;;;8.40;71.90;;;;;;4261874;33;44282;-75
2021/05/01 04:49:10;;;;;;;;;;;8.40;71.90;;;;;;4274446;33;43181;-75
2021/05/01 04:51:43;;;;;;;;;;;8.40;72.10;;;;;;4271851;33;20015;-75
2021/05/01 04:54:13;;;;;;;;;;;8.40;72.20;;;;;;4271222;33;32094;-75
2021/05/01 04:56:40;;;;;;;;;;;8.40;72.30;;;;;;4259504;33;32774;-74
2021/05/01 04:59:06;;;;;;;;;;;8.30;72.40;;;;;;4271855;33;20421;-75
2021/05/01 05:01:35;;;;;;;;;;;8.40;72.50;;;;;;4260601;33;33747;-75
2021/05/01 05:04:07;;;;;;;;;;;8.30;72.60;;;;;;4261084;33;20019;-75
2021/05/01 05:06:34;;;;;;;;;;;8.30;72.70;;;;;;4271549;33;32362;-75
2021/05/01 05:09:03;;;;;;;;;;;8.30;72.80;;;;;;4260049;33;44271;-75
2021/05/01 05:11:38;;;;;;;;;;;8.30;72.80;;;;;;4261743;33;20074;-75
2021/05/01 05:14:04;;;;;;;;;;;8.30;73.00;;;;;;4259384;33;40439;-75
2021/05/01 05:16:33;;;;;;;;;;;8.20;73.00;;;;;;4270829;33;44627;-75
2021/05/01 05:19:00;;;;;;;;;;;8.30;73.20;;;;;;4260230;33;43335;-74
2021/05/01 05:21:29;;;;;;;;;;;8.20;73.10;;;;;;4259194;33;34107;-75
2021/05/01 05:24:04;;;;;;;;;;;8.20;73.30;;;;;;4260422;33;38376;-75
2021/05/01 05:26:33;;;;;;;;;;;8.20;73.30;;;;;;4259589;33;27073;-75
2021/05/01 05:29:05;;;;;;;;;;;8.20;73.50;;;;;;4261045;33;20086;-75
2021/05/01 05:31:32;;;;;;;;;;;8.20;73.70;;;;;;4259856;33;38452;-75
2021/05/01 05:33:58;;;;;;;;;;;8.20;73.90;;;;;;4260903;33;20019;-75
2021/05/01 05:36:25;;;;;;;;;;;8.20;73.90;;;;;;4259561;33;20056;-75
2021/05/01 05:39:02;;;;;;;;;;;8.20;73.90;;;;;;4259934;33;20477;-75
2021/05/01 05:41:36;;;;;;;;;;;8.20;74.20;;;;;;4259996;33;20368;-75
2021/05/01 05:44:04;;;;;;;;;;;8.20;74.90;;;;;;4258780;33;37104;-75
2021/05/01 05:46:31;;;;;;;;;;;8.20;74.40;;;;;;4259935;33;20015;-75
2021/05/01 05:49:02;;;;;;;;;;;8.20;74.40;;;;;;4271560;33;20019;-75
2021/05/01 05:51:34;;;;;;;;;;;8.20;74.50;;;;;;4273920;33;20023;-75
2021/05/01 05:54:01;;;;;;;;;;;8.20;75.20;;;;;;4262096;33;20067;-75
2021/05/01 05:56:34;;;;;;;;;;;8.20;75.00;;;;;;4274584;33;20007;-75
2021/05/01 05:59:01;;;;;;;;;;;8.20;75.20;;;;;;4262067;33;19999;-75
2021/05/01 06:01:31;;;;;;;;;;;8.20;75.20;;;;;;4273399;33;20026;-75
2021/05/01 06:03:59;;;;;;;;;;;8.20;75.50;;;;;;4274776;33;20048;-75
2021/05/01 06:06:33;;;;;;;;;;;8.20;75.60;;;;;;4260708;33;43999;-75
2021/05/01 06:09:01;;;;;;;;;;;8.20;75.50;;;;;;4274816;33;20010;-75
2021/05/01 06:11:28;;;;;;;;;;;8.20;75.60;;;;;;4273053;33;44469;-75
2021/05/01 06:14:01;;;;;;;;;;;8.20;75.90;;;;;;4260267;33;42952;-75
2021/05/01 06:16:28;;;;;;;;;;;8.20;76.20;;;;;;4273548;33;42562;-75
2021/05/01 06:18:54;;;;;;;;;;;8.20;76.30;;;;;;4273406;33;43501;-75
2021/05/01 06:21:21;;;;;;;;;;;8.20;76.30;;;;;;4260359;33;45090;-75
2021/05/01 06:23:49;;;;;;;;;;;8.20;76.40;;;;;;4273666;33;32892;-75
2021/05/01 06:26:17;;;;;;;;;;;8.20;76.90;;;;;;4273612;33;36392;-75
2021/05/01 06:28:44;;;;;;;;;;;8.20;76.90;;;;;;4273121;33;44747;-75
2021/05/01 06:31:11;;;;;;;;;;;8.20;76.90;;;;;;4271770;33;43495;-75
2021/05/01 06:33:40;;;;;;;;;;;8.20;77.10;;;;;;4260057;33;43972;-75
2021/05/01 06:36:10;;;;;;;;;;;8.20;77.20;;;;;;4272949;33;44439;-75
2021/05/01 06:38:38;;;;;;;;;;;8.20;77.40;;;;;;4272699;33;39669;-75
2021/05/01 06:41:07;;;;;;;;;;;8.20;77.70;;;;;;4259882;33;46857;-75
2021/05/01 06:43:57;;;;;;;;;;;8.30;77.90;;;;;;4260460;33;37492;-75
2021/05/01 06:46:26;;;;;;;;;;;8.30;77.80;;;;;;4274173;33;20021;-75
2021/05/01 06:48:54;;;;;;;;;;;8.30;77.80;;;;;;4274056;33;20372;-75
2021/05/01 06:51:23;;;;;;;;;;;8.40;78.10;;;;;;4258496;33;20019;-75
2021/05/01 06:53:50;;;;;;;;;;;8.40;78.10;;;;;;4270802;33;20007;-75
2021/05/01 06:56:17;;;;;;;;;;;8.40;78.00;;;;;;4270712;33;20007;-75
2021/05/01 06:58:50;;;;;;;;;;;8.30;78.00;;;;;;4259326;33;20090;-75
2021/05/01 07:01:22;;;;;;;;;;;8.30;78.00;;;;;;4260102;33;20089;-75
2021/05/01 07:03:52;;;;;;;;;;;8.30;78.10;;;;;;4260271;33;20016;-75
2021/05/01 07:06:19;;;;;;;;;;;8.30;78.50;;;;;;4259701;33;20444;-75
2021/05/01 07:08:45;;;;;;;;;;;8.40;78.70;;;;;;4259549;33;20051;-75
2021/05/01 07:11:13;;;;;;;;;;;8.40;78.70;;;;;;4257153;33;44914;-75
2021/05/01 07:13:41;;;;;;;;;;;8.40;78.80;;;;;;4258236;33;44493;-75
2021/05/01 07:16:10;;;;;;;;;;;8.40;78.80;;;;;;4257736;33;44928;-75
2021/05/01 07:18:38;;;;;;;;;;;8.50;78.50;;;;;;4258412;33;20030;-75
2021/05/01 07:21:06;;;;;;;;;;;8.50;78.50;;;;;;4258432;33;20015;-77
2021/05/01 07:23:33;;;;;;;;;;;8.50;78.40;;;;;;4258721;33;20372;-75
2021/05/01 07:26:00;;;;;;;;;;;8.50;78.30;;;;;;4258762;33;20003;-75
2021/05/01 07:28:30;;;;;;;;;;;8.50;78.30;;;;;;4259969;33;20030;-75
2021/05/01 07:30:57;;;;;;;;;;;8.60;78.40;;;;;;4258213;33;20003;-75
2021/05/01 07:33:31;;;;;;;;;;;8.60;78.40;;;;;;4259119;33;20090;-75
2021/05/01 07:36:01;;;;;;;;;;;8.60;78.60;;;;;;4257546;33;44330;-75
2021/05/01 07:38:28;;;;;;;;;;;8.60;78.70;;;;;;4258136;33;20014;-75
2021/05/01 07:40:58;;;;;;;;;;;8.60;78.50;;;;;;4258249;33;20003;-75
2021/05/01 07:43:26;;;;;;;;;;;8.70;78.50;;;;;;4270064;33;20439;-75
2021/05/01 07:45:56;;;;;;;;;;;8.60;78.70;;;;;;4259334;33;20011;-75
2021/05/01 07:48:25;;;;;;;;;;;8.70;78.80;;;;;;4258843;33;23840;-75
2021/05/01 07:50:57;;;;;;;;;;;8.70;78.60;;;;;;4271666;33;20078;-75
2021/05/01 07:53:26;;;;;;;;;;;8.70;78.60;;;;;;4275462;33;43524;-75
2021/05/01 07:55:56;;;;;;;;;;;8.70;78.40;;;;;;4275207;33;20456;-75
2021/05/01 07:58:25;;;;;;;;;;;8.70;78.30;;;;;;4276396;33;20020;-75
2021/05/01 08:00:54;;;;;;;;;;;8.70;78.40;;;;;;4263666;33;20058;-75
2021/05/01 08:03:24;;;;;;;;;;;8.70;79.10;;;;;;4275261;33;42954;-75
2021/05/01 08:05:50;;;;;;;;;;;8.70;78.40;;;;;;4262449;33;43740;-75
2021/05/01 08:08:20;;;;;;;;;;;8.80;78.40;;;;;;4274813;33;44476;-75
2021/05/01 08:10:46;;;;;;;;;;;8.80;78.50;;;;;;4262403;33;37419;-75
2021/05/01 08:13:13;;;;;;;;;;;8.80;78.40;;;;;;4273709;33;44221;-75
2021/05/01 08:15:40;;;;;;;;;;;8.80;78.30;;;;;;4275497;33;33864;-75
2021/05/01 08:18:09;;;;;;;;;;;8.80;78.00;;;;;;4274758;33;20019;-75
2021/05/01 08:20:39;;;;;;;;;;;8.80;77.80;;;;;;4262062;33;38892;-75
2021/05/01 08:23:06;;;;;;;;;;;8.80;77.90;;;;;;4274376;33;42611;-75
2021/05/01 08:25:32;;;;;;;;;;;8.80;77.90;;;;;;4276081;33;20372;-75
2021/05/01 08:28:02;;;;;;;;;;;8.80;77.80;;;;;;4262261;33;43786;-75
2021/05/01 08:30:29;;;;;;;;;;;8.80;77.80;;;;;;4275096;33;20007;-75
2021/05/01 08:32:58;;;;;;;;;;;8.80;77.80;;;;;;4274432;33;42717;-76
2021/05/01 08:35:25;;;;;;;;;;;8.80;77.60;;;;;;4273438;33;43361;-75
2021/05/01 08:37:52;;;;;;;;;;;8.80;77.40;;;;;;4274631;33;33758;-75
2021/05/01 08:40:19;;;;;;;;;;;8.80;77.20;;;;;;4262471;33;20007;-75
2021/05/01 08:42:49;;;;;;;;;;;8.90;77.30;;;;;;4273567;33;44221;-75
2021/05/01 08:45:20;;;;;;;;;;;8.90;77.20;;;;;;4261562;33;45378;-75
2021/05/01 08:47:49;;;;;;;;;;;8.90;76.80;;;;;;4263256;33;20070;-75
2021/05/01 08:50:31;;;;;;;;;;;8.90;76.60;;;;;;4274463;33;44626;-75
2021/05/01 08:52:58;;;;;;;;;;;8.90;76.60;;;;;;4273602;33;44906;-75
2021/05/01 08:55:26;;;;;;;;;;;8.90;76.40;;;;;;4273435;33;43669;-75
2021/05/01 08:57:53;;;;;;;;;;;8.90;76.30;;;;;;4275727;33;20011;-76
2021/05/01 09:00:23;;;;;;;;;;;8.90;76.50;;;;;;4274204;33;20372;-75
2021/05/01 09:02:50;;;;;;;;;;;8.90;76.20;;;;;;4275283;33;20021;-75
2021/05/01 09:05:19;;;;;;;;;;;8.90;76.20;;;;;;4275775;33;20046;-75
2021/05/01 09:07:46;;;;;;;;;;;8.90;76.10;;;;;;4274495;33;36708;-75
2021/05/01 09:10:13;;;;;;;;;;;9.00;76.20;;;;;;4273198;33;33044;-75
2021/05/01 09:12:45;;;;;;;;;;;9.00;76.20;;;;;;4262530;33;20027;-75
2021/05/01 09:15:17;;;;;;;;;;;9.00;75.90;;;;;;4262752;33;20026;-75
2021/05/01 09:17:45;;;;;;;;;;;9.00;75.70;;;;;;4274275;33;20056;-75
2021/05/01 09:20:16;;;;;;;;;;;9.00;75.60;;;;;;4275054;33;20421;-75
2021/05/01 09:22:56;;;;;;;;;;;9.00;75.30;;;;;;4274240;33;20405;-75
2021/05/01 09:25:25;;;;;;;;;;;9.00;75.30;;;;;;4262576;33;20011;-75
2021/05/01 09:28:02;;;;;;;;;;;9.00;75.40;;;;;;4262111;33;20016;-75
2021/05/01 09:30:31;;;;;;;;;;;9.00;75.20;;;;;;4275214;33;20007;-75
2021/05/01 09:33:16;;;;;;;;;;;9.00;75.00;;;;;;4262292;33;19999;-75
2021/05/01 09:35:44;;;;;;;;;;;9.10;74.90;;;;;;4275039;33;20010;-75
2021/05/01 09:38:12;;;;;;;;;;;9.10;74.60;;;;;;4273525;33;20025;-76
2021/05/01 09:40:43;;;;;;;;;;;9.10;74.50;;;;;;4274946;33;20365;-75
2021/05/01 09:43:10;;;;;;;;;;;9.10;74.30;;;;;;4275132;33;20015;-75
2021/05/01 09:45:39;;;;;;;;;;;9.10;74.50;;;;;;4274128;33;20015;-75
2021/05/01 09:48:13;;;;;;;;;;;9.10;74.50;;;;;;4273919;33;19999;-75
2021/05/01 09:50:40;;;;;;;;;;;9.10;74.40;;;;;;4261754;33;20025;-75
2021/05/01 09:53:12;;;;;;;;;;;9.10;74.00;;;;;;4262367;33;20407;-75
2021/05/01 09:55:47;;;;;;;;;;;9.20;74.00;;;;;;4275048;33;20058;-75
2021/05/01 09:58:21;;;;;;;;;;;9.20;73.80;;;;;;4262037;33;20016;-75
2021/05/01 10:00:54;;;;;;;;;;;9.20;73.90;;;;;;4274962;33;20013;-75
2021/05/01 10:03:22;;;;;;;;;;;9.20;73.90;;;;;;4273717;33;20007;-75
2021/05/01 10:05:49;;;;;;;;;;;9.20;73.80;;;;;;4274884;33;20006;-75
2021/05/01 10:08:20;;;;;;;;;;;9.30;74.10;;;;;;4261876;33;20329;-75
2021/05/01 10:10:50;;;;;;;;;;;9.30;73.50;;;;;;4249981;33;20047;-75
2021/05/01 10:13:52;;;;;;;;;;;9.30;73.50;;;;;;4252350;33;20062;-75
2021/05/01 10:16:20;;;;;;;;;;;9.30;73.30;;;;;;4262222;33;20058;-75
2021/05/01 10:19:07;;;;;;;;;;;9.30;73.10;;;;;;4261817;33;20351;-75
2021/05/01 10:21:35;;;;;;;;;;;9.30;72.90;;;;;;4261530;33;20348;-75
2021/05/01 10:24:02;;;;;;;;;;;9.40;73.00;;;;;;4261571;33;20018;-75
2021/05/01 10:26:40;;;;;;;;;;;9.40;73.00;;;;;;4273294;33;20013;-75
2021/05/01 10:29:07;;;;;;;;;;;9.40;72.90;;;;;;4262021;33;20015;-75
2021/05/01 10:31:52;;;;;;;;;;;9.40;73.00;;;;;;4274076;33;20049;-75
2021/05/01 10:34:23;;;;;;;;;;;9.40;72.80;;;;;;4261271;33;20003;-75
2021/05/01 10:36:52;;;;;;;;;;;9.50;72.80;;;;;;4274709;33;20029;-75
2021/05/01 10:39:19;;;;;;;;;;;9.50;72.90;;;;;;4274527;33;20063;-75
2021/05/01 10:41:56;;;;;;;;;;;9.50;72.80;;;;;;4272898;33;20021;-75
2021/05/01 10:44:23;;;;;;;;;;;9.50;72.60;;;;;;4261453;33;20027;-75
2021/05/01 10:47:05;;;;;;;;;;;9.50;72.60;;;;;;4274571;33;20116;-75
2021/05/01 10:49:35;;;;;;;;;;;9.60;72.70;;;;;;4274000;33;20042;-75
2021/05/01 10:52:12;;;;;;;;;;;9.60;72.50;;;;;;4274410;33;20020;-75
2021/05/01 10:54:54;;;;;;;;;;;9.70;72.50;;;;;;4261006;33;20006;-75
2021/05/01 10:57:24;;;;;;;;;;;9.70;72.20;;;;;;4261314;33;20031;-75
2021/05/01 11:00:04;;;;;;;;;;;9.70;72.10;;;;;;4261133;33;20021;-75
2021/05/01 11:02:36;;;;;;;;;;;9.70;72.10;;;;;;4259783;33;41029;-75
2021/05/01 11:05:05;;;;;;;;;;;9.70;71.90;;;;;;4272015;33;44564;-75
2021/05/01 11:08:12;;;;;;;;;;;9.70;71.70;;;;;;4272485;33;42537;-75
2021/05/01 11:10:45;;;;;;;;;;;9.80;71.60;;;;;;4229076;34;21109;-75
2021/05/01 11:13:14;;;;;;;;;;;9.80;71.50;;;;;;4228531;34;44501;-74
2021/05/01 11:15:50;;;;;;;;;;;9.80;71.60;;;;;;4252577;33;28256;-75
2021/05/01 11:18:20;;;;;;;;;;;9.80;71.30;;;;;;4273023;33;20022;-75
2021/05/01 11:20:49;;;;;;;;;;;9.80;71.20;;;;;;4260964;33;27937;-75
2021/05/01 11:23:20;;;;;;;;;;;9.90;71.00;;;;;;4272757;33;27278;-75
2021/05/01 11:25:54;;;;;;;;;;;9.90;71.10;;;;;;4272923;33;43999;-75
2021/05/01 11:28:24;;;;;;;;;;;9.90;71.20;;;;;;4272851;33;33092;-74
2021/05/01 11:30:52;;;;;;;;;;;9.90;71.30;;;;;;4271549;33;38171;-74
2021/05/01 11:33:23;;;;;;;;;;;9.90;71.30;;;;;;4260116;33;45118;-74
2021/05/01 11:35:50;;;;;;;;;;;10.00;71.40;;;;;;4260168;33;34822;-74
2021/05/01 11:38:31;;;;;;;;;;;10.00;71.40;;;;;;4272788;33;40956;-74
2021/05/01 11:41:07;;;;;;;;;;;10.00;71.40;;;;;;4272841;33;40099;-74
2021/05/01 11:43:35;;;;;;;;;;;10.10;71.40;;;;;;4272767;33;39411;-74
2021/05/01 11:46:22;;;;;;;;;;;10.10;71.40;;;;;;4272568;33;38971;-74
2021/05/01 11:48:54;;;;;;;;;;;10.10;71.40;;;;;;4272644;33;43334;-76
2021/05/01 11:51:31;;;;;;;;;;;10.10;71.20;;;;;;4257485;33;39698;-75
2021/05/01 11:54:18;;;;;;;;;;;10.20;71.20;;;;;;4258912;33;36660;-74
2021/05/01 11:57:01;;;;;;;;;;;10.20;71.00;;;;;;4254463;33;35862;-74
2021/05/01 11:59:31;;;;;;;;;;;10.30;71.20;;;;;;4258536;33;20052;-74
2021/05/01 12:02:01;;;;;;;;;;;10.30;71.00;;;;;;4258389;33;39726;-75
2021/05/01 12:04:47;;;;;;;;;;;10.40;70.70;;;;;;4257355;33;37294;-74
2021/05/01 12:07:24;;;;;;;;;;;10.40;70.70;;;;;;4270058;33;20017;-74
2021/05/01 12:09:52;;;;;;;;;;;10.40;70.60;;;;;;4257999;33;20007;-73
2021/05/01 12:12:20;;;;;;;;;;;10.50;70.60;;;;;;4259141;33;20023;-74
2021/05/01 12:14:48;;;;;;;;;;;10.50;70.60;;;;;;4257572;33;19996;-74
2021/05/01 12:17:15;;;;;;;;;;;10.60;70.60;;;;;;4258968;33;21185;-74
2021/05/01 12:19:46;;;;;;;;;;;10.60;70.40;;;;;;4258243;33;44680;-74
2021/05/01 12:22:29;;;;;;;;;;;10.60;70.30;;;;;;4256925;33;38065;-74
2021/05/01 12:24:56;;;;;;;;;;;10.70;70.30;;;;;;4258847;33;21898;-74
2021/05/01 12:27:42;;;;;;;;;;;10.60;70.10;;;;;;4244994;33;44607;-74
2021/05/01 12:30:29;;;;;;;;;;;10.70;70.20;;;;;;4259025;33;20405;-73
2021/05/01 12:32:55;;;;;;;;;;;10.70;70.00;;;;;;4257992;33;20081;-74
2021/05/01 12:35:22;;;;;;;;;;;10.70;69.90;;;;;;4259003;33;20003;-74
2021/05/01 12:37:57;;;;;;;;;;;10.70;69.90;;;;;;4260945;33;32173;-74
2021/05/01 12:40:33;;;;;;;;;;;10.70;69.90;;;;;;4261145;33;33677;-74
2021/05/01 12:43:20;;;;;;;;;;;10.70;69.80;;;;;;4260514;33;43794;-74
2021/05/01 12:45:46;;;;;;;;;;;10.70;69.70;;;;;;4260649;33;38748;-74
2021/05/01 12:48:35;;;;;;;;;;;10.70;69.60;;;;;;4260990;33;30778;-74
2021/05/01 12:51:12;;;;;;;;;;;10.70;70.50;;;;;;4270854;33;33459;-74
2021/05/01 12:53:41;;;;;;;;;;;10.70;69.60;;;;;;4273141;33;45553;-73
2021/05/01 12:56:23;;;;;;;;;;;10.70;69.40;;;;;;4273571;33;24979;-75
2021/05/01 12:59:10;;;;;;;;;;;10.70;69.50;;;;;;4274424;33;20014;-73
2021/05/01 13:01:39;;;;;;;;;;;10.70;69.50;;;;;;4262650;33;20014;-73
2021/05/01 13:04:17;;;;;;;;;;;10.70;70.00;;;;;;4275636;33;20426;-73
2021/05/01 13:06:45;;;;;;;;;;;10.80;69.60;;;;;;4261527;33;40523;-74
2021/05/01 13:09:13;;;;;;;;;;;10.80;69.50;;;;;;4275292;33;20007;-74
2021/05/01 13:11:40;;;;;;;;;;;10.80;69.50;;;;;;4274204;33;37692;-74
2021/05/01 13:14:17;;;;;;;;;;;10.80;69.30;;;;;;4261526;33;32954;-74
2021/05/01 13:16:59;;;;;;;;;;;10.80;69.10;;;;;;4275279;33;20405;-74
2021/05/01 13:19:26;;;;;;;;;;;10.80;69.20;;;;;;4274092;33;43689;-75
2021/05/01 13:21:59;;;;;;;;;;;10.80;69.20;;;;;;4261266;33;44230;-74
2021/05/01 13:24:33;;;;;;;;;;;10.90;69.00;;;;;;4274391;33;41578;-74
2021/05/01 13:27:01;;;;;;;;;;;10.90;68.80;;;;;;4261506;33;44569;-74
2021/05/01 13:29:32;;;;;;;;;;;10.90;68.90;;;;;;4249849;33;30806;-74
2021/05/01 13:32:01;;;;;;;;;;;10.90;69.10;;;;;;4273788;33;20427;-74
2021/05/01 13:34:28;;;;;;;;;;;10.90;69.30;;;;;;4275281;33;20006;-74
2021/05/01 13:36:55;;;;;;;;;;;11.00;69.40;;;;;;4274257;33;20014;-74
2021/05/01 13:39:23;;;;;;;;;;;11.00;69.30;;;;;;4262362;33;20058;-74
2021/05/01 13:42:08;;;;;;;;;;;11.00;69.40;;;;;;4261822;33;20006;-76
2021/05/01 13:44:39;;;;;;;;;;;11.10;69.20;;;;;;4261825;33;20005;-76
2021/05/01 13:47:16;;;;;;;;;;;11.10;69.00;;;;;;4274778;33;20487;-75
2021/05/01 13:49:45;;;;;;;;;;;11.20;69.00;;;;;;4273459;33;20026;-76
2021/05/01 13:52:11;;;;;;;;;;;11.20;68.70;;;;;;4275204;33;20017;-75
2021/05/01 13:54:43;;;;;;;;;;;11.20;67.70;;;;;;4261827;33;20026;-75
2021/05/01 13:57:10;;;;;;;;;;;11.30;68.20;;;;;;4274897;33;20002;-75
2021/05/01 13:59:39;;;;;;;;;;;11.30;68.30;;;;;;4274609;33;20021;-75
2021/05/01 14:02:06;;;;;;;;;;;11.40;68.40;;;;;;4273309;33;20077;-75
2021/05/01 14:04:34;;;;;;;;;;;11.40;68.00;;;;;;4273307;33;20349;-75
2021/05/01 14:07:02;;;;;;;;;;;11.40;67.80;;;;;;4261316;33;20007;-75
2021/05/01 14:09:29;;;;;;;;;;;11.40;67.70;;;;;;4261726;33;20452;-75
2021/05/01 14:11:57;;;;;;;;;;;11.50;67.50;;;;;;4274403;33;20125;-75
2021/05/01 14:14:25;;;;;;;;;;;11.50;67.40;;;;;;4273436;33;20007;-74
2021/05/01 14:16:58;;;;;;;;;;;11.50;67.20;;;;;;4273552;33;25835;-75
2021/05/01 14:19:25;;;;;;;;;;;11.50;67.20;;;;;;4274280;33;20050;-75
2021/05/01 14:21:52;;;;;;;;;;;11.50;67.10;;;;;;4273182;33;20432;-76
2021/05/01 14:24:19;;;;;;;;;;;11.60;67.20;;;;;;4261008;33;20006;-75
2021/05/01 14:26:59;;;;;;;;;;;11.60;66.90;;;;;;4273693;33;22035;-74
2021/05/01 14:29:28;;;;;;;;;;;11.60;66.70;;;;;;4273060;33;20073;-75
2021/05/01 14:32:11;;;;;;;;;;;11.60;66.70;;;;;;4261412;33;20007;-74
2021/05/01 14:34:39;;;;;;;;;;;11.60;66.60;;;;;;4273334;33;20025;-74
2021/05/01 14:37:06;;;;;;;;;;;11.60;66.60;;;;;;4259892;33;45679;-74
2021/05/01 14:39:36;;;;;;;;;;;11.60;66.40;;;;;;4273420;33;43713;-75
2021/05/01 14:42:09;;;;;;;;;;;11.70;66.30;;;;;;4260243;33;43525;-74
2021/05/01 14:44:36;;;;;;;;;;;11.70;66.20;;;;;;4273240;33;20093;-75
2021/05/01 14:47:05;;;;;;;;;;;11.70;66.30;;;;;;4271663;33;40830;-75
2021/05/01 14:49:36;;;;;;;;;;;11.70;66.40;;;;;;4259735;33;45630;-74
2021/05/01 14:52:07;;;;;;;;;;;11.70;66.30;;;;;;4272389;33;44754;-74
2021/05/01 14:54:34;;;;;;;;;;;11.70;66.20;;;;;;4260451;33;39411;-75